Time;durP1;ratioP1;P1;durP2;ratioP2;P2;SDS_P1;SDS_P2;PMS_P1;PMS_P2;Temp;Humidity;BMP_temperature;BMP_pressure;BME280_temperature;BME280_humidity;BME280_pressure;Samples;Min_cycle;Max_cycle;Signal;HPM_P1;HPM_P2
2023/01/13 00:00:45;;;;;;;34.33;5.17;;;;;;;15.98;45.69;100345.09;5034589;28;20497;-70
2023/01/13 00:03:11;;;;;;;33.13;4.03;;;;;;;15.34;47.18;100350.16;5049648;28;20044;-70
2023/01/13 00:05:37;;;;;;;28.43;4.40;;;;;;;16.23;45.46;100339.72;5049387;28;20433;-70
2023/01/13 00:08:06;;;;;;;25.73;4.77;;;;;;;15.01;48.68;100342.59;5082707;28;20462;-71
2023/01/13 00:10:33;;;;;;;30.97;4.57;;;;;;;14.75;49.40;100349.66;5048021;28;20033;-70
2023/01/13 00:12:59;;;;;;;27.20;4.67;;;;;;;15.85;48.29;100355.28;5049619;28;20037;-70
2023/01/13 00:15:25;;;;;;;30.37;3.90;;;;;;;14.87;50.40;100355.38;5048663;28;20131;-70
2023/01/13 00:17:50;;;;;;;33.50;4.37;;;;;;;14.52;51.69;100360.94;5049254;28;20495;-70
2023/01/13 00:20:16;;;;;;;47.73;4.70;;;;;;;14.69;51.41;100352.50;5048626;28;20485;-70
2023/01/13 00:22:42;;;;;;;27.97;4.07;;;;;;;15.54;50.36;100362.59;5049008;28;20116;-70
2023/01/13 00:25:07;;;;;;;44.13;5.27;;;;;;;15.30;50.20;100355.59;5048401;28;20021;-70
2023/01/13 00:27:33;;;;;;;38.47;6.37;;;;;;;15.21;50.59;100364.72;5044399;28;20036;-70
2023/01/13 00:29:59;;;;;;;38.77;4.70;;;;;;;15.39;50.54;100353.47;5041353;28;20033;-70
2023/01/13 00:32:25;;;;;;;34.47;4.70;;;;;;;16.21;49.89;100360.00;5048890;28;20454;-71
2023/01/13 00:34:50;;;;;;;46.10;5.40;;;;;;;15.89;50.31;100357.72;5050100;28;20021;-70
2023/01/13 00:37:15;;;;;;;27.00;6.17;;;;;;;14.84;54.05;100350.25;5048935;28;20524;-71
2023/01/13 00:39:41;;;;;;;34.17;5.17;;;;;;;15.52;52.72;100345.13;5047811;28;20073;-71
2023/01/13 00:44:51;;;;;;;44.93;6.33;;;;;;;15.52;52.65;100345.13;5050475;28;20110;-71
2023/01/13 00:47:17;;;;;;;41.27;6.93;;;;;;;16.06;52.80;100328.06;5049121;28;20037;-70
2023/01/13 00:49:43;;;;;;;33.07;5.20;;;;;;;15.97;52.04;100331.09;5047823;28;20094;-71
2023/01/13 00:52:09;;;;;;;43.50;5.33;;;;;;;15.39;53.47;100327.16;5035868;28;20033;-71
2023/01/13 00:54:34;;;;;;;41.70;6.40;;;;;;;16.05;52.02;100318.44;5029624;28;20123;-70
2023/01/13 00:57:00;;;;;;;46.57;5.97;;;;;;;16.05;51.98;100304.41;5038192;28;20025;-70
2023/01/13 00:59:25;;;;;;;47.53;5.90;;;;;;;15.33;53.42;100310.72;5032897;28;20111;-71
2023/01/13 01:01:51;;;;;;;46.67;6.83;;;;;;;15.82;52.54;100308.00;5042461;28;20037;-71
2023/01/13 01:04:16;;;;;;;43.97;5.33;;;;;;;14.96;54.48;100297.19;5061917;28;20083;-71
2023/01/13 01:06:41;;;;;;;31.23;4.43;;;;;;;16.52;50.68;100298.06;5044318;28;20096;-71
2023/01/13 01:09:12;;;;;;;41.27;6.53;;;;;;;15.09;54.64;100298.41;5066001;28;20041;-71
2023/01/13 01:11:38;;;;;;;39.60;6.37;;;;;;;15.40;53.47;100305.16;5029239;28;20397;-71
2023/01/13 01:14:03;;;;;;;40.57;4.67;;;;;;;14.75;55.49;100309.31;5030041;28;20034;-71
2023/01/13 01:16:31;;;;;;;34.67;4.80;;;;;;;15.03;55.68;100324.09;5038265;28;20464;-70
2023/01/13 01:18:58;;;;;;;39.80;5.40;;;;;;;14.83;57.25;100322.22;5047624;28;20416;-71
2023/01/13 01:21:24;;;;;;;43.17;7.23;;;;;;;14.85;57.52;100304.59;5031147;28;20032;-71
2023/01/13 01:23:50;;;;;;;40.77;5.00;;;;;;;15.27;55.11;100314.44;5043289;28;20029;-71
2023/01/13 01:26:19;;;;;;;37.40;4.70;;;;;;;15.06;54.74;100301.16;5043076;28;20032;-71
2023/01/13 01:28:45;;;;;;;29.30;5.33;;;;;;;15.52;54.38;100300.34;5028100;28;20033;-71
2023/01/13 01:31:24;;;;;;;32.40;5.40;;;;;;;15.16;55.06;100311.38;5047651;28;20025;-71
2023/01/13 01:33:49;;;;;;;40.00;4.90;;;;;;;15.46;54.25;100295.31;5048324;28;20067;-71
2023/01/13 01:36:17;;;;;;;35.63;5.00;;;;;;;14.87;55.53;100313.28;5047863;28;20500;-70
2023/01/13 01:38:44;;;;;;;38.13;4.83;;;;;;;15.38;52.61;100312.25;5043743;28;20094;-70
2023/01/13 01:41:15;;;;;;;29.87;4.57;;;;;;;15.40;52.96;100307.81;5044442;28;20029;-71
2023/01/13 01:43:59;;;;;;;30.10;4.83;;;;;;;14.06;57.97;100316.00;5048138;28;20067;-70
2023/01/13 01:46:29;;;;;;;36.43;4.93;;;;;;;15.02;54.41;100310.09;5047637;28;20044;-70
2023/01/13 01:49:02;;;;;;;33.67;5.20;;;;;;;14.88;54.75;100309.75;5047807;28;20029;-70
2023/01/13 01:51:33;;;;;;;31.13;4.43;;;;;;;15.56;52.60;100323.84;5047922;28;20531;-71
2023/01/13 01:54:01;;;;;;;35.23;4.73;;;;;;;14.37;56.07;100303.59;5048602;28;20036;-71
2023/01/13 01:56:27;;;;;;;30.00;5.50;;;;;;;14.27;55.49;100308.31;5047192;28;20384;-71
2023/01/13 01:58:53;;;;;;;43.23;5.10;;;;;;;14.85;53.81;100312.47;5038818;28;20280;-71
2023/01/13 02:01:19;;;;;;;43.37;6.00;;;;;;;14.92;54.13;100311.38;5048157;28;20480;-71
2023/01/13 02:03:53;;;;;;;40.40;6.47;;;;;;;14.41;54.65;100321.84;5050994;28;20037;-71
2023/01/13 02:06:19;;;;;;;31.13;5.10;;;;;;;14.99;53.74;100318.13;5052328;28;20041;-71
2023/01/13 02:08:45;;;;;;;43.20;5.90;;;;;;;14.41;54.64;100316.59;5053880;28;20401;-71
2023/01/13 02:14:17;;;;;;;38.07;5.10;;;;;;;15.16;52.67;100298.19;5043123;28;20047;-71
2023/01/13 02:17:09;;;;;;;39.30;5.13;;;;;;;15.54;50.83;100285.34;5051166;28;20017;-71
2023/01/13 02:19:43;;;;;;;34.57;5.70;;;;;;;14.95;52.41;100279.66;5050354;28;20463;-71
2023/01/13 02:22:31;;;;;;;36.67;6.40;;;;;;;15.23;52.28;100270.72;5052696;28;20458;-71
2023/01/13 02:25:21;;;;;;;37.63;5.17;;;;;;;14.02;53.41;100264.44;5032706;28;20416;-71
2023/01/13 02:28:36;;;;;;;45.30;6.77;;;;;;;14.49;53.19;100261.09;5049926;28;20514;-71
2023/01/13 02:34:08;;;;;;;32.03;4.10;;;;;;;15.09;51.20;100264.19;5052417;28;20048;-70
2023/01/13 02:36:40;;;;;;;;;;;;;;;14.34;51.93;100262.50;5048339;28;20471;-71
2023/01/13 02:39:05;;;;;;;42.40;4.90;;;;;;;14.54;51.40;100268.84;5065409;28;20380;-70
2023/01/13 02:44:27;;;;;;;40.83;4.97;;;;;;;14.39;51.70;100260.56;5033271;28;20460;-70
2023/01/13 02:47:17;;;;;;;29.43;4.20;;;;;;;14.38;52.31;100269.38;5041335;28;20025;-71
2023/01/13 02:49:54;;;;;;;37.13;4.93;;;;;;;14.81;51.00;100274.03;5051201;28;20575;-71
2023/01/13 02:52:30;;;;;;;44.97;5.63;;;;;;;14.61;51.23;100270.31;5050487;28;20036;-71
2023/01/13 02:55:06;;;;;;;31.27;5.27;;;;;;;14.04;52.80;100280.16;5050992;28;20029;-71
2023/01/13 02:57:34;;;;;;;36.53;4.80;;;;;;;14.57;51.72;100279.25;5049557;28;20055;-70
2023/01/13 03:00:01;;;;;;;32.93;4.93;;;;;;;14.16;52.43;100273.63;5032006;28;20036;-71
2023/01/13 03:02:27;;;;;;;37.13;4.33;;;;;;;14.19;51.80;100265.66;5032542;28;20083;-71
2023/01/13 03:04:59;;;;;;;40.40;5.43;;;;;;;13.95;53.83;100265.56;5031574;28;20046;-71
2023/01/13 03:07:34;;;;;;;30.88;4.60;;;;;;;14.84;50.93;100264.28;5042299;28;20047;-71
2023/01/13 03:10:08;;;;;;;42.27;5.93;;;;;;;14.61;50.84;100275.59;5051301;28;20040;-70
2023/01/13 03:13:04;;;;;;;42.60;4.80;;;;;;;14.58;51.80;100270.44;5049046;28;20024;-71
2023/01/13 03:15:35;;;;;;;34.40;3.90;;;;;;;14.54;51.93;100268.84;5044415;28;20064;-71
2023/01/13 03:18:13;;;;;;;37.27;5.00;;;;;;;14.73;53.17;100282.22;5050406;28;20037;-71
2023/01/13 03:20:46;;;;;;;33.83;4.23;;;;;;;14.60;53.17;100279.13;5050406;28;20362;-71
2023/01/13 03:23:23;;;;;;;25.17;4.57;;;;;;;14.18;52.90;100283.19;5049413;28;20630;-71
2023/01/13 03:26:00;;;;;;;31.13;3.93;;;;;;;15.05;51.85;100272.28;5038509;28;20029;-71
2023/01/13 03:28:32;;;;;;;19.17;3.17;;;;;;;14.72;53.54;100278.72;5032823;28;20029;-71
2023/01/13 03:31:04;;;;;;;19.30;3.27;;;;;;;14.00;54.15;100261.03;5052817;28;20047;-71
2023/01/13 03:33:38;;;;;;;26.87;3.37;;;;;;;14.08;53.96;100260.75;5050687;28;20040;-71
2023/01/13 03:36:09;;;;;;;25.80;3.13;;;;;;;13.90;55.71;100256.97;5047593;28;20086;-71
2023/01/13 03:38:39;;;;;;;23.63;4.37;;;;;;;13.88;56.02;100256.19;5050850;28;20028;-70
2023/01/13 03:41:11;;;;;;;22.10;3.30;;;;;;;14.41;55.45;100261.38;5044514;28;20219;-71
2023/01/13 03:46:49;;;;;;;21.80;3.07;;;;;;;14.61;54.90;100258.97;5051308;28;20086;-70
2023/01/13 03:49:20;;;;;;;16.17;3.00;;;;;;;14.54;54.30;100263.56;5049299;28;20025;-70
2023/01/13 03:51:53;;;;;;;18.40;3.70;;;;;;;14.39;54.39;100263.19;5050518;28;20033;-70
2023/01/13 03:54:22;;;;;;;20.73;3.13;;;;;;;14.35;54.75;100253.69;5049670;28;20097;-70
2023/01/13 03:57:00;;;;;;;15.13;2.60;;;;;;;14.58;54.05;100259.94;5044685;28;20013;-70
2023/01/13 03:59:31;;;;;;;28.90;3.47;;;;;;;14.88;53.69;100265.03;5031325;28;20497;-71
2023/01/13 04:02:29;;;;;;;24.33;3.80;;;;;;;14.58;52.89;100259.94;5030671;28;20060;-71
2023/01/13 04:05:01;;;;;;;17.53;2.60;;;;;;;13.92;54.85;100252.53;5047237;28;20051;-71
2023/01/13 04:07:49;;;;;;;16.08;2.13;;;;;;;14.19;55.00;100252.50;5047667;28;20029;-70
2023/01/13 04:10:45;;;;;;;21.40;2.73;;;;;;;14.49;52.94;100265.50;5048568;28;20067;-70
2023/01/13 04:13:16;;;;;;;15.20;2.23;;;;;;;13.92;52.75;100260.41;5051654;28;20036;-70
2023/01/13 04:15:44;;;;;;;19.40;2.57;;;;;;;14.02;52.80;100256.56;5048552;28;20504;-70
2023/01/13 04:18:14;;;;;;;14.00;2.77;;;;;;;14.33;52.20;100245.00;5043618;28;20561;-70
2023/01/13 04:20:41;;;;;;;17.70;2.40;;;;;;;14.23;51.94;100260.25;5049299;28;20047;-71
2023/01/13 04:23:07;;;;;;;15.90;2.23;;;;;;;14.28;52.20;100256.59;5048068;28;20029;-71
2023/01/13 04:25:33;;;;;;;16.00;1.87;;;;;;;13.89;51.95;100276.28;5047035;28;20028;-70
2023/01/13 04:27:58;;;;;;;15.03;2.10;;;;;;;14.02;52.00;100269.69;5075676;28;20315;-70
2023/01/13 04:30:23;;;;;;;12.67;1.73;;;;;;;13.92;53.36;100265.69;5032636;28;20065;-70
2023/01/13 04:32:49;;;;;;;15.03;2.23;;;;;;;13.96;52.94;100267.28;5045397;28;20033;-70
2023/01/13 04:35:14;;;;;;;12.93;2.07;;;;;;;14.46;52.26;100263.00;5045522;28;20116;-71
2023/01/13 04:37:40;;;;;;;13.37;2.50;;;;;;;14.45;51.04;100256.00;5050536;28;20017;-71
2023/01/13 04:40:06;;;;;;;14.53;2.30;;;;;;;13.43;53.60;100272.50;5037663;28;20029;-70
2023/01/13 04:42:31;;;;;;;20.30;3.03;;;;;;;14.58;51.60;100280.97;5049818;28;20032;-71
2023/01/13 04:44:56;;;;;;;14.40;1.83;;;;;;;14.74;51.39;100281.28;5049074;28;20393;-70
2023/01/13 04:47:22;;;;;;;15.73;2.20;;;;;;;14.73;51.70;100290.13;5049934;28;20074;-70
2023/01/13 04:49:47;;;;;;;25.23;2.70;;;;;;;14.11;52.77;100286.06;5050034;28;20037;-70
2023/01/13 04:52:13;;;;;;;16.07;2.57;;;;;;;14.57;51.53;100285.34;5047173;28;20083;-70
2023/01/13 04:54:38;;;;;;;20.13;3.30;;;;;;;15.10;51.11;100294.88;5049422;28;20032;-70
2023/01/13 04:57:03;;;;;;;15.10;3.03;;;;;;;14.58;52.22;100286.22;5047785;28;20076;-71
2023/01/13 04:59:29;;;;;;;17.37;2.10;;;;;;;14.40;51.78;100285.94;5048301;28;20039;-70
2023/01/13 05:01:54;;;;;;;16.13;2.20;;;;;;;14.51;52.23;100290.84;5048537;28;20400;-70
2023/01/13 05:04:20;;;;;;;18.23;2.83;;;;;;;14.33;52.66;100292.34;5050333;28;20029;-70
2023/01/13 05:06:45;;;;;;;17.33;2.17;;;;;;;13.94;52.30;100295.38;5036708;28;20135;-71
2023/01/13 05:09:12;;;;;;;18.37;2.40;;;;;;;14.79;51.69;100289.03;5030489;28;20064;-71
2023/01/13 05:17:07;;;;;;;19.93;3.30;;;;;;;14.24;51.17;100285.59;5049988;28;20163;-71
2023/01/13 05:19:35;;;;;;;19.13;2.40;;;;;;;13.78;52.74;100276.63;5047172;28;21539;-71
2023/01/13 05:27:30;;;;;;;25.47;2.77;;;;;;;14.50;50.69;100298.78;5048136;28;20044;-71
2023/01/13 05:29:57;;;;;;;21.47;2.87;;;;;;;14.16;50.99;100297.28;5048917;28;20155;-71
2023/01/13 05:32:23;;;;;;;15.07;2.70;;;;;;;14.24;51.16;100287.38;5041368;28;20025;-71
2023/01/13 05:34:48;;;;;;;21.43;3.37;;;;;;;14.56;50.25;100274.88;5029153;28;20033;-71
2023/01/13 05:37:14;;;;;;;15.00;3.13;;;;;;;13.98;51.04;100275.13;5047388;28;20086;-71
2023/01/13 05:45:08;;;;;;;24.27;2.77;;;;;;;14.34;50.17;100293.19;5054270;28;20159;-71
2023/01/13 05:47:34;;;;;;;23.47;3.00;;;;;;;14.38;49.88;100284.28;5051860;28;20028;-71
2023/01/13 05:49:59;;;;;;;28.83;3.80;;;;;;;14.80;48.70;100290.75;5044503;28;20037;-71
2023/01/13 05:52:24;;;;;;;20.57;2.77;;;;;;;14.50;49.46;100290.91;5046469;28;20028;-71
2023/01/13 05:54:50;;;;;;;14.37;2.60;;;;;;;13.90;50.11;100294.63;5034850;28;20401;-71
2023/01/13 05:57:16;;;;;;;23.13;4.73;;;;;;;14.37;49.11;100307.09;5032407;28;20021;-71
2023/01/13 05:59:41;;;;;;;21.43;3.00;;;;;;;14.43;49.84;100288.47;5046600;28;20024;-71
2023/01/13 06:02:07;;;;;;;19.13;2.73;;;;;;;14.99;48.02;100289.16;5050092;28;20027;-70
2023/01/13 06:04:32;;;;;;;28.90;3.07;;;;;;;14.37;49.23;100293.94;5051738;28;20155;-70
2023/01/13 06:06:57;;;;;;;25.00;3.10;;;;;;;14.27;48.86;100291.69;5052168;28;20484;-71
2023/01/13 06:09:23;;;;;;;22.50;2.90;;;;;;;14.36;48.98;100279.06;5051271;28;20031;-70
2023/01/13 06:11:48;;;;;;;21.23;3.23;;;;;;;14.50;48.48;100286.47;5051609;28;20066;-71
2023/01/13 06:14:14;;;;;;;17.67;2.67;;;;;;;14.28;48.51;100294.25;5052078;28;20040;-71
2023/01/13 06:16:39;;;;;;;16.87;2.60;;;;;;;14.09;48.40;100299.25;5045213;28;20041;-71
2023/01/13 06:19:11;;;;;;;17.77;3.13;;;;;;;14.68;48.20;100292.88;5035809;28;20041;-70
2023/01/13 06:21:37;;;;;;;19.13;3.17;;;;;;;14.57;48.73;100293.22;5039777;28;20040;-70
2023/01/13 06:24:03;;;;;;;27.13;3.70;;;;;;;15.07;47.32;100300.25;5050907;28;20028;-70
2023/01/13 06:26:33;;;;;;;18.93;3.30;;;;;;;14.56;48.14;100303.81;5050079;28;20059;-70
2023/01/13 06:28:58;;;;;;;26.93;2.97;;;;;;;13.95;49.12;100326.00;5052253;28;20021;-71
2023/01/13 06:31:25;;;;;;;25.37;3.47;;;;;;;14.58;47.41;100312.53;5049685;28;20070;-71
2023/01/13 06:34:07;;;;;;;23.10;3.00;;;;;;;14.68;48.37;100313.94;5043163;28;20481;-71
2023/01/13 06:36:42;;;;;;;30.40;3.70;;;;;;;15.01;47.14;100326.78;5041952;28;20020;-70
2023/01/13 06:39:12;;;;;;;23.60;3.17;;;;;;;14.65;47.56;100319.31;5084676;28;20036;-70
2023/01/13 06:44:23;;;;;;;24.43;3.67;;;;;;;14.86;47.88;100314.19;5052420;28;20495;-71
2023/01/13 06:46:50;;;;;;;30.57;3.37;;;;;;;13.91;49.03;100337.50;5049187;28;20078;-71
2023/01/13 06:49:16;;;;;;;30.20;4.87;;;;;;;14.46;49.12;100328.72;5049431;28;20032;-71
2023/01/13 06:51:41;;;;;;;36.30;4.07;;;;;;;15.06;48.09;100313.47;5033977;28;20091;-72
2023/01/13 06:54:07;;;;;;;23.97;2.97;;;;;;;14.56;48.11;100327.47;5033335;28;20057;-71
2023/01/13 06:56:32;;;;;;;28.57;3.47;;;;;;;15.26;47.16;100326.75;5047333;28;20051;-71
2023/01/13 06:58:58;;;;;;;23.63;3.67;;;;;;;15.19;47.72;100324.41;5050437;28;20029;-71
2023/01/13 07:01:23;;;;;;;22.10;3.30;;;;;;;14.13;48.40;100332.41;5050827;28;20021;-71
2023/01/13 07:03:48;;;;;;;19.07;3.13;;;;;;;15.05;46.76;100340.72;5050693;28;20024;-70
2023/01/13 07:06:14;;;;;;;25.43;3.50;;;;;;;14.57;47.96;100332.69;5043223;28;20041;-71
2023/01/13 07:08:39;;;;;;;29.07;3.90;;;;;;;15.87;45.79;100332.38;5031760;28;20400;-70
2023/01/13 07:11:05;;;;;;;21.47;3.03;;;;;;;15.72;45.56;100339.94;5032374;28;20029;-71
2023/01/13 07:16:17;;;;;;;24.17;2.73;;;;;;;14.67;47.11;100335.91;5021754;28;20031;-70
2023/01/13 07:18:43;;;;;;;26.20;3.47;;;;;;;14.12;48.61;100346.47;5048329;28;20498;-70
2023/01/13 07:21:11;;;;;;;26.43;4.40;;;;;;;15.81;45.06;100343.16;5052510;28;20028;-69
2023/01/13 07:23:39;;;;;;;25.07;3.83;;;;;;;14.58;46.85;100344.09;5049031;28;20025;-69
2023/01/13 07:26:05;;;;;;;25.03;3.60;;;;;;;14.37;46.17;100343.91;5046406;28;20052;-70
2023/01/13 07:28:31;;;;;;;26.03;3.27;;;;;;;15.24;46.22;100348.78;5048090;28;20172;-69
2023/01/13 07:30:58;;;;;;;24.30;4.50;;;;;;;14.54;47.25;100343.31;5045310;28;20025;-70
2023/01/13 07:33:23;;;;;;;22.13;3.10;;;;;;;14.54;46.13;100347.72;5032493;28;20028;-70
2023/01/13 07:35:56;;;;;;;19.50;4.27;;;;;;;14.70;46.76;100356.84;5047324;28;20025;-69
2023/01/13 07:38:22;;;;;;;22.60;4.30;;;;;;;14.80;45.82;100364.41;5081084;28;20144;-70
2023/01/13 07:40:47;;;;;;;26.57;3.60;;;;;;;14.67;45.95;100359.59;5050144;28;20043;-69
2023/01/13 07:43:31;;;;;;;19.43;2.87;;;;;;;14.59;47.06;100357.19;5048720;28;20035;-70
2023/01/13 07:46:04;;;;;;;22.73;4.10;;;;;;;14.65;46.94;100350.88;5050181;28;20021;-69
2023/01/13 07:48:32;;;;;;;29.27;4.03;;;;;;;15.42;45.09;100353.34;5032029;28;20485;-70
2023/01/13 07:51:06;;;;;;;27.37;3.53;;;;;;;15.04;46.60;100358.28;5039066;28;20026;-69
2023/01/13 07:53:32;;;;;;;22.00;3.47;;;;;;;15.49;45.30;100359.25;5034062;28;20040;-69
2023/01/13 07:55:58;;;;;;;19.13;3.00;;;;;;;14.34;46.94;100365.03;5044232;28;20037;-70
2023/01/13 07:58:25;;;;;;;21.03;4.30;;;;;;;14.67;47.25;100377.13;5039800;28;20030;-70
2023/01/13 08:00:51;;;;;;;38.03;3.57;;;;;;;14.66;47.20;100373.66;5048343;28;20040;-70
2023/01/13 08:03:17;;;;;;;20.77;3.47;;;;;;;14.63;47.04;100384.28;5028785;28;20495;-70
2023/01/13 08:05:42;;;;;;;18.67;3.40;;;;;;;14.14;46.83;100383.22;5037424;28;20041;-70
2023/01/13 08:08:07;;;;;;;23.63;2.93;;;;;;;13.86;48.16;100394.59;5050614;28;20021;-69
2023/01/13 08:10:33;;;;;;;16.83;3.73;;;;;;;14.70;47.51;100380.53;5053428;28;20033;-68
2023/01/13 08:13:16;;;;;;;16.43;2.93;;;;;;;14.18;47.91;100379.59;5045785;28;20114;-69
2023/01/13 08:15:43;;;;;;;20.67;3.57;;;;;;;14.48;46.91;100398.75;5027678;28;20035;-70
2023/01/13 08:18:09;;;;;;;31.23;4.40;;;;;;;15.61;45.12;100394.81;5064232;28;20017;-70
2023/01/13 08:20:34;;;;;;;17.10;5.03;;;;;;;13.91;47.56;100395.31;5048540;28;20029;-70
2023/01/13 08:23:00;;;;;;;28.83;3.50;;;;;;;14.09;47.83;100404.38;5050082;28;20469;-70
2023/01/13 08:25:27;;;;;;;19.30;2.63;;;;;;;13.84;48.54;100405.13;5047370;28;20025;-70
2023/01/13 08:27:54;;;;;;;25.10;3.63;;;;;;;15.03;47.55;100403.94;5080673;28;20047;-70
2023/01/13 08:30:19;;;;;;;26.33;4.53;;;;;;;14.21;49.21;100414.50;5037383;28;20037;-70
2023/01/13 08:32:46;;;;;;;23.27;3.20;;;;;;;14.34;48.67;100424.63;5030650;28;20032;-70
2023/01/13 08:35:12;;;;;;;38.70;4.17;;;;;;;14.52;50.60;100428.44;5048356;28;20024;-69
2023/01/13 08:37:37;;;;;;;28.63;4.63;;;;;;;15.26;49.61;100425.94;5049208;28;20028;-69
2023/01/13 08:40:03;;;;;;;20.30;3.30;;;;;;;14.65;51.10;100440.31;5048754;28;20051;-70
2023/01/13 08:42:29;;;;;;;24.13;3.20;;;;;;;13.85;52.51;100421.78;5046906;28;20029;-70
2023/01/13 08:44:55;;;;;;;37.77;4.13;;;;;;;14.32;52.69;100427.31;5048866;28;20032;-70
2023/01/13 08:47:21;;;;;;;21.57;3.00;;;;;;;13.83;55.40;100437.56;5046668;28;20029;-70
2023/01/13 08:49:47;;;;;;;22.27;3.30;;;;;;;13.82;55.04;100425.34;5046982;28;20032;-70
2023/01/13 08:52:13;;;;;;;26.90;3.97;;;;;;;14.15;54.29;100435.75;5048096;28;20024;-69
2023/01/13 08:54:39;;;;;;;17.37;3.00;;;;;;;13.67;56.51;100441.53;5046129;28;20028;-69
2023/01/13 08:57:05;;;;;;;37.13;3.97;;;;;;;13.38;56.60;100438.88;5049051;28;20055;-69
2023/01/13 08:59:30;;;;;;;22.53;4.47;;;;;;;13.71;56.42;100446.69;5046538;28;20453;-69
2023/01/13 09:01:56;;;;;;;24.43;3.43;;;;;;;14.33;55.14;100444.81;5045130;28;20519;-69
2023/01/13 09:04:23;;;;;;;28.93;3.77;;;;;;;13.97;57.05;100446.81;5029717;28;20542;-69
2023/01/13 09:06:49;;;;;;;23.60;3.37;;;;;;;13.64;56.78;100450.41;5050363;28;20029;-70
2023/01/13 09:09:14;;;;;;;27.70;4.87;;;;;;;13.17;58.71;100457.78;5048542;28;20102;-69
2023/01/13 09:14:31;;;;;;;26.30;3.73;;;;;;;14.14;55.87;100467.34;5037566;28;20066;-69
2023/01/13 09:16:57;;;;;;;31.33;4.20;;;;;;;13.59;57.18;100454.91;5073353;28;20091;-69
2023/01/13 09:19:23;;;;;;;34.50;4.00;;;;;;;14.19;55.27;100462.78;5046274;28;20111;-71
2023/01/13 09:21:48;;;;;;;29.63;3.60;;;;;;;13.47;56.64;100460.50;5065359;28;20123;-69
2023/01/13 09:24:14;;;;;;;24.53;2.97;;;;;;;14.02;54.60;100474.66;5059809;28;20040;-70
2023/01/13 09:26:39;;;;;;;26.37;4.10;;;;;;;14.87;52.53;100472.00;5035838;28;20041;-70
2023/01/13 09:29:05;;;;;;;24.87;4.10;;;;;;;13.47;56.17;100458.75;5050363;28;20024;-70
2023/01/13 09:31:33;;;;;;;38.90;5.50;;;;;;;13.96;54.49;100464.34;5035180;28;20032;-70
2023/01/13 09:36:44;;;;;;;23.97;3.40;;;;;;;14.39;53.82;100481.41;5037054;28;20324;-70
2023/01/13 09:39:09;;;;;;;18.63;2.63;;;;;;;14.32;53.14;100479.03;5048965;28;20028;-70
2023/01/13 09:44:35;;;;;;;23.67;3.37;;;;;;;13.67;52.96;100508.09;5049894;28;20098;-70
2023/01/13 09:47:05;;;;;;;27.07;4.20;;;;;;;13.83;54.45;100502.38;5046175;28;20025;-70
2023/01/13 09:49:40;;;;;;;31.40;3.40;;;;;;;13.61;53.83;100502.13;5046205;28;20337;-70
2023/01/13 09:52:14;;;;;;;24.60;3.57;;;;;;;13.85;52.83;100511.94;5048093;28;20158;-70
2023/01/13 09:54:44;;;;;;;22.50;4.43;;;;;;;14.90;49.85;100513.16;5080505;28;20028;-70
2023/01/13 09:57:15;;;;;;;25.83;3.67;;;;;;;14.92;50.71;100511.34;5041089;28;20067;-70
2023/01/13 09:59:41;;;;;;;22.67;3.67;;;;;;;14.02;52.06;100519.34;5030182;28;20025;-71
2023/01/13 10:02:47;;;;;;;25.23;3.13;;;;;;;14.68;51.90;100513.84;5029152;28;20104;-71
2023/01/13 10:05:26;;;;;;;31.37;3.77;;;;;;;14.91;50.83;100521.00;5061490;28;20053;-71
2023/01/13 10:08:00;;;;;;;19.77;3.03;;;;;;;13.88;53.32;100532.03;5042329;28;20595;-71
2023/01/13 10:10:37;;;;;;;25.07;3.60;;;;;;;15.16;51.13;100545.66;5048286;28;20095;-70
2023/01/13 10:13:15;;;;;;;17.93;3.10;;;;;;;14.89;51.20;100538.63;5048675;28;20028;-71
2023/01/13 10:16:17;;;;;;;30.90;4.77;;;;;;;15.25;49.90;100550.63;5033330;28;20025;-71
2023/01/13 10:19:17;;;;;;;23.52;4.18;;;;;;;14.47;52.17;100556.59;5030192;28;20036;-71
2023/01/13 10:22:11;;;;;;;25.00;3.50;;;;;;;14.93;52.63;100542.00;5056188;28;20053;-71
2023/01/13 10:25:21;;;;;;;27.93;3.73;;;;;;;15.21;50.37;100570.91;5036230;28;20446;-71
2023/01/13 10:27:50;;;;;;;25.47;3.90;;;;;;;15.47;48.48;100557.75;5029950;28;20087;-70
2023/01/13 10:30:31;;;;;;;21.63;2.93;;;;;;;15.02;49.50;100554.84;5029944;28;20049;-71
2023/01/13 10:33:08;;;;;;;20.97;3.03;;;;;;;14.79;50.11;100562.66;5044076;28;20037;-70
2023/01/13 10:35:52;;;;;;;27.23;3.40;;;;;;;15.04;49.18;100574.13;5050484;28;20039;-71
2023/01/13 10:38:27;;;;;;;16.33;2.60;;;;;;;14.83;48.79;100574.78;5050311;28;20068;-71
2023/01/13 10:40:54;;;;;;;20.33;2.43;;;;;;;14.29;50.15;100572.00;5068218;28;20473;-71
2023/01/13 10:43:20;;;;;;;16.43;2.67;;;;;;;15.58;47.83;100566.16;5046751;28;20090;-71
2023/01/13 10:46:09;;;;;;;15.37;2.33;;;;;;;15.24;47.81;100576.06;5046070;28;20029;-70
2023/01/13 10:48:38;;;;;;;29.83;2.80;;;;;;;14.82;48.44;100594.13;5054093;28;20111;-70
2023/01/13 10:51:25;;;;;;;21.03;3.03;;;;;;;13.65;50.84;100604.44;5045265;28;20406;-70
2023/01/13 10:53:57;;;;;;;16.37;2.97;;;;;;;14.01;50.50;100585.97;5049498;28;20040;-70
2023/01/13 10:56:25;;;;;;;15.43;3.13;;;;;;;14.61;48.97;100591.22;5044409;28;20455;-71
2023/01/13 10:58:51;;;;;;;15.13;3.60;;;;;;;14.87;48.71;100593.06;5051879;28;20046;-70
2023/01/13 11:01:26;;;;;;;15.40;2.60;;;;;;;14.28;49.81;100603.59;5049373;28;20153;-70
2023/01/13 11:03:53;;;;;;;16.37;2.70;;;;;;;15.05;48.12;100610.03;5050403;28;20067;-71
2023/01/13 11:06:26;;;;;;;17.43;2.50;;;;;;;14.07;50.09;100601.53;5049316;28;20159;-71
2023/01/13 11:08:54;;;;;;;17.23;2.63;;;;;;;15.32;47.39;100609.16;5078271;28;20051;-70
2023/01/13 11:11:42;;;;;;;19.03;2.70;;;;;;;15.07;48.53;100588.91;5044764;28;20436;-70
2023/01/13 11:14:32;;;;;;;23.33;3.37;;;;;;;15.35;47.64;100612.56;5060351;28;20051;-71
2023/01/13 11:17:04;;;;;;;19.80;3.93;;;;;;;14.74;47.84;100618.91;5050054;28;20496;-71
2023/01/13 11:19:31;;;;;;;18.83;2.90;;;;;;;14.57;48.99;100615.88;5049885;28;20064;-70
2023/01/13 11:22:05;;;;;;;16.80;2.77;;;;;;;14.84;47.70;100626.50;5052337;28;20078;-70
2023/01/13 11:24:46;;;;;;;18.93;3.07;;;;;;;14.55;49.24;100617.72;5049744;28;20029;-71
2023/01/13 11:27:33;;;;;;;23.57;3.00;;;;;;;15.41;48.03;100628.19;5048333;28;20045;-70
2023/01/13 11:30:16;;;;;;;18.23;3.20;;;;;;;15.24;47.79;100636.63;5048791;28;20110;-71
2023/01/13 11:33:09;;;;;;;13.75;2.22;;;;;;;14.58;49.22;100649.19;5045306;28;20091;-70
2023/01/13 11:35:40;;;;;;;17.48;2.45;;;;;;;14.58;48.48;100633.41;5050444;28;20567;-71
2023/01/13 11:38:37;;;;;;;17.77;2.87;;;;;;;14.88;47.77;100651.81;5050891;28;20025;-70
2023/01/13 11:41:32;;;;;;;18.33;4.10;;;;;;;15.51;46.92;100646.28;5045816;28;20143;-70
2023/01/13 11:44:27;;;;;;;18.63;3.33;;;;;;;14.36;48.96;100649.78;5047297;28;20062;-70
2023/01/13 11:46:52;;;;;;;15.10;2.67;;;;;;;13.80;51.41;100654.84;5039293;28;20076;-70
2023/01/13 11:49:25;;;;;;;17.53;2.73;;;;;;;14.07;50.06;100654.09;5048228;28;20048;-70
2023/01/13 11:51:53;;;;;;;20.45;2.95;;;;;;;15.09;48.08;100652.91;5049721;28;20086;-70
2023/01/13 11:55:00;;;;;;;17.53;2.70;;;;;;;15.25;47.23;100662.03;5047455;28;20056;-71
2023/01/13 11:57:45;;;;;;;21.77;1.80;;;;;;;14.40;49.97;100651.44;5049773;28;20573;-71
2023/01/13 12:00:44;;;;;;;12.40;2.43;;;;;;;14.04;50.30;100664.69;5048169;28;20031;-71
2023/01/13 12:03:13;;;;;;;14.10;2.20;;;;;;;15.28;47.45;100666.34;5047590;28;20032;-70
2023/01/13 12:05:46;;;;;;;18.10;2.17;;;;;;;15.40;47.55;100665.97;5036910;28;20049;-71
2023/01/13 12:08:43;;;;;;;16.23;1.83;;;;;;;15.15;47.15;100680.81;5035242;28;20442;-71
2023/01/13 12:11:32;;;;;;;20.50;3.53;;;;;;;15.25;46.91;100667.31;5038569;28;20039;-70
2023/01/13 12:14:22;;;;;;;18.63;2.97;;;;;;;16.04;46.44;100677.88;5049612;28;20049;-70
2023/01/13 12:16:48;;;;;;;15.23;3.97;;;;;;;14.72;47.39;100672.47;5050004;28;20032;-71
2023/01/13 12:19:16;;;;;;;14.37;2.30;;;;;;;15.56;46.86;100675.97;5048954;28;20526;-71